Terminal Aerodrome Forecast
Issued by NWS

Home | Current Version | Previous Version | Text Only | Print | Product List | Glossary On
Versions: 1 2 3 4 5 6 7 8 9 10 11 12
000
FTUS42 TJSJ 300500 RRA
TAFKPK
TAF
TKPK 300542Z 3006/3106 02008KT P6SM FEW020
     FM301000 07006KT P6SM SCT020
     FM301800 04005KT P6SM SCT020
      AMD NOT SKED TIL 301100=

USA.gov is the U.S. government's official web portal to all federal, state and local government web resources and services.